sensor_id;sensor_type;location;lat;lon;timestamp;temperature;humidity
36548;DHT22;22551;52.206;4.856;2022-10-16T00:03:21;12.80;99.90
36548;DHT22;22551;52.206;4.856;2022-10-16T00:08:23;12.80;99.90
36548;DHT22;22551;52.206;4.856;2022-10-16T00:13:26;12.80;99.90
36548;DHT22;22551;52.206;4.856;2022-10-16T00:18:29;12.90;99.90
36548;DHT22;22551;52.206;4.856;2022-10-16T00:23:32;12.80;99.90
36548;DHT22;22551;52.206;4.856;2022-10-16T00:28:36;12.80;99.90
36548;DHT22;22551;52.206;4.856;2022-10-16T00:33:49;12.90;99.90
36548;DHT22;22551;52.206;4.856;2022-10-16T00:38:59;12.90;99.90
36548;DHT22;22551;52.206;4.856;2022-10-16T00:49:46;12.80;99.90
36548;DHT22;22551;52.206;4.856;2022-10-16T00:54:50;12.80;99.90
36548;DHT22;22551;52.206;4.856;2022-10-16T00:59:55;12.90;99.90
36548;DHT22;22551;52.206;4.856;2022-10-16T01:04:57;12.90;99.90
36548;DHT22;22551;52.206;4.856;2022-10-16T01:10:10;12.90;99.90
36548;DHT22;22551;52.206;4.856;2022-10-16T01:15:26;13.00;99.90
36548;DHT22;22551;52.206;4.856;2022-10-16T01:20:33;13.10;99.90
36548;DHT22;22551;52.206;4.856;2022-10-16T01:26:18;13.10;99.90
36548;DHT22;22551;52.206;4.856;2022-10-16T01:31:42;13.20;99.90
36548;DHT22;22551;52.206;4.856;2022-10-16T01:36:59;13.20;99.90
36548;DHT22;22551;52.206;4.856;2022-10-16T01:42:09;13.20;99.90
36548;DHT22;22551;52.206;4.856;2022-10-16T01:47:25;13.10;99.90
36548;DHT22;22551;52.206;4.856;2022-10-16T01:52:29;13.00;99.90
36548;DHT22;22551;52.206;4.856;2022-10-16T01:57:36;13.00;99.90
36548;DHT22;22551;52.206;4.856;2022-10-16T02:02:44;12.90;99.90
36548;DHT22;22551;52.206;4.856;2022-10-16T02:07:51;12.90;99.90
36548;DHT22;22551;52.206;4.856;2022-10-16T02:12:57;12.80;99.90
36548;DHT22;22551;52.206;4.856;2022-10-16T02:18:05;12.80;99.90
36548;DHT22;22551;52.206;4.856;2022-10-16T02:23:13;12.70;99.90
36548;DHT22;22551;52.206;4.856;2022-10-16T02:28:29;12.70;99.90
36548;DHT22;22551;52.206;4.856;2022-10-16T02:33:46;12.70;99.90
36548;DHT22;22551;52.206;4.856;2022-10-16T02:38:49;12.60;99.90
36548;DHT22;22551;52.206;4.856;2022-10-16T02:43:52;12.60;99.90
36548;DHT22;22551;52.206;4.856;2022-10-16T02:49:00;12.60;99.90
36548;DHT22;22551;52.206;4.856;2022-10-16T02:54:04;12.60;99.90
36548;DHT22;22551;52.206;4.856;2022-10-16T02:59:09;12.60;99.90
36548;DHT22;22551;52.206;4.856;2022-10-16T03:04:12;12.50;99.90
36548;DHT22;22551;52.206;4.856;2022-10-16T03:09:14;12.50;99.90
36548;DHT22;22551;52.206;4.856;2022-10-16T03:14:17;12.50;99.90
36548;DHT22;22551;52.206;4.856;2022-10-16T03:19:20;12.50;99.90
36548;DHT22;22551;52.206;4.856;2022-10-16T03:24:22;12.40;99.90
36548;DHT22;22551;52.206;4.856;2022-10-16T03:29:24;12.40;99.90
36548;DHT22;22551;52.206;4.856;2022-10-16T03:34:29;12.30;99.90
36548;DHT22;22551;52.206;4.856;2022-10-16T03:39:31;12.30;99.90
36548;DHT22;22551;52.206;4.856;2022-10-16T03:44:33;12.20;99.90
36548;DHT22;22551;52.206;4.856;2022-10-16T03:49:37;12.30;99.90
36548;DHT22;22551;52.206;4.856;2022-10-16T03:54:39;12.20;99.90
36548;DHT22;22551;52.206;4.856;2022-10-16T03:59:41;12.20;99.90
36548;DHT22;22551;52.206;4.856;2022-10-16T04:04:45;12.20;99.90
36548;DHT22;22551;52.206;4.856;2022-10-16T04:09:47;12.20;99.90
36548;DHT22;22551;52.206;4.856;2022-10-16T04:14:49;12.20;99.90
36548;DHT22;22551;52.206;4.856;2022-10-16T04:19:53;12.20;99.90
36548;DHT22;22551;52.206;4.856;2022-10-16T04:24:55;12.10;99.90
36548;DHT22;22551;52.206;4.856;2022-10-16T04:29:59;12.10;99.90
36548;DHT22;22551;52.206;4.856;2022-10-16T04:35:06;12.10;99.90
36548;DHT22;22551;52.206;4.856;2022-10-16T04:40:14;12.20;99.90
36548;DHT22;22551;52.206;4.856;2022-10-16T04:45:19;12.20;99.90
36548;DHT22;22551;52.206;4.856;2022-10-16T04:50:24;12.30;99.90
36548;DHT22;22551;52.206;4.856;2022-10-16T04:55:28;12.30;99.90
36548;DHT22;22551;52.206;4.856;2022-10-16T05:00:38;12.40;99.90
36548;DHT22;22551;52.206;4.856;2022-10-16T05:05:47;12.50;99.90
36548;DHT22;22551;52.206;4.856;2022-10-16T05:10:54;12.50;99.90
36548;DHT22;22551;52.206;4.856;2022-10-16T05:15:58;12.50;99.90
36548;DHT22;22551;52.206;4.856;2022-10-16T05:21:03;12.60;99.90
36548;DHT22;22551;52.206;4.856;2022-10-16T05:26:06;12.60;99.90
36548;DHT22;22551;52.206;4.856;2022-10-16T05:31:09;12.60;99.90
36548;DHT22;22551;52.206;4.856;2022-10-16T05:36:12;12.60;99.90
36548;DHT22;22551;52.206;4.856;2022-10-16T05:41:14;12.60;99.90
36548;DHT22;22551;52.206;4.856;2022-10-16T05:46:23;12.60;99.90
36548;DHT22;22551;52.206;4.856;2022-10-16T05:51:28;12.60;99.90
36548;DHT22;22551;52.206;4.856;2022-10-16T05:56:30;12.70;99.90
36548;DHT22;22551;52.206;4.856;2022-10-16T06:01:33;12.60;99.90
36548;DHT22;22551;52.206;4.856;2022-10-16T06:06:37;12.60;99.90
36548;DHT22;22551;52.206;4.856;2022-10-16T06:11:39;12.60;99.90
36548;DHT22;22551;52.206;4.856;2022-10-16T06:16:42;12.60;99.90
36548;DHT22;22551;52.206;4.856;2022-10-16T06:21:45;12.60;99.90
36548;DHT22;22551;52.206;4.856;2022-10-16T06:26:48;12.60;99.90
36548;DHT22;22551;52.206;4.856;2022-10-16T06:31:50;12.50;99.90
36548;DHT22;22551;52.206;4.856;2022-10-16T06:36:54;12.60;99.90
36548;DHT22;22551;52.206;4.856;2022-10-16T06:41:56;12.50;99.90
36548;DHT22;22551;52.206;4.856;2022-10-16T06:46:59;12.50;99.90
36548;DHT22;22551;52.206;4.856;2022-10-16T06:52:02;12.50;99.90
36548;DHT22;22551;52.206;4.856;2022-10-16T06:57:07;12.50;99.90
36548;DHT22;22551;52.206;4.856;2022-10-16T07:02:09;12.60;99.90
36548;DHT22;22551;52.206;4.856;2022-10-16T07:07:13;12.60;99.90
36548;DHT22;22551;52.206;4.856;2022-10-16T07:12:15;12.70;99.90
36548;DHT22;22551;52.206;4.856;2022-10-16T07:17:17;12.60;99.90
36548;DHT22;22551;52.206;4.856;2022-10-16T07:22:21;12.70;99.90
36548;DHT22;22551;52.206;4.856;2022-10-16T07:27:23;12.70;99.90
36548;DHT22;22551;52.206;4.856;2022-10-16T07:32:26;12.60;99.90
36548;DHT22;22551;52.206;4.856;2022-10-16T07:37:30;12.60;99.90
36548;DHT22;22551;52.206;4.856;2022-10-16T07:42:32;12.60;99.90
36548;DHT22;22551;52.206;4.856;2022-10-16T07:47:34;12.60;99.90
36548;DHT22;22551;52.206;4.856;2022-10-16T07:52:38;12.70;99.90
36548;DHT22;22551;52.206;4.856;2022-10-16T07:57:41;12.70;99.90
36548;DHT22;22551;52.206;4.856;2022-10-16T08:02:43;12.80;99.90
36548;DHT22;22551;52.206;4.856;2022-10-16T08:07:49;12.90;99.90
36548;DHT22;22551;52.206;4.856;2022-10-16T08:12:52;13.00;99.90
36548;DHT22;22551;52.206;4.856;2022-10-16T08:17:56;13.10;99.90
36548;DHT22;22551;52.206;4.856;2022-10-16T08:23:00;13.20;99.90
36548;DHT22;22551;52.206;4.856;2022-10-16T08:28:03;13.30;99.90
36548;DHT22;22551;52.206;4.856;2022-10-16T08:33:06;13.30;99.90
36548;DHT22;22551;52.206;4.856;2022-10-16T08:38:09;13.50;99.90
36548;DHT22;22551;52.206;4.856;2022-10-16T08:43:26;13.60;99.90
36548;DHT22;22551;52.206;4.856;2022-10-16T08:48:42;13.60;99.90
36548;DHT22;22551;52.206;4.856;2022-10-16T08:53:53;13.70;99.90
36548;DHT22;22551;52.206;4.856;2022-10-16T08:58:58;13.90;99.90
36548;DHT22;22551;52.206;4.856;2022-10-16T09:10:03;14.10;99.90
36548;DHT22;22551;52.206;4.856;2022-10-16T09:15:24;14.30;99.90
36548;DHT22;22551;52.206;4.856;2022-10-16T09:20:38;14.40;99.90
36548;DHT22;22551;52.206;4.856;2022-10-16T09:25:47;14.70;99.90
36548;DHT22;22551;52.206;4.856;2022-10-16T09:30:50;14.90;99.90
36548;DHT22;22551;52.206;4.856;2022-10-16T09:35:54;15.10;99.90
36548;DHT22;22551;52.206;4.856;2022-10-16T09:41:02;15.30;99.90
36548;DHT22;22551;52.206;4.856;2022-10-16T09:46:24;15.50;99.90
36548;DHT22;22551;52.206;4.856;2022-10-16T09:51:30;15.70;99.90
36548;DHT22;22551;52.206;4.856;2022-10-16T09:56:36;16.00;99.90
36548;DHT22;22551;52.206;4.856;2022-10-16T10:01:41;16.20;99.90
36548;DHT22;22551;52.206;4.856;2022-10-16T10:06:46;16.40;99.90
36548;DHT22;22551;52.206;4.856;2022-10-16T10:11:53;16.60;99.90
36548;DHT22;22551;52.206;4.856;2022-10-16T10:17:18;17.10;99.90
36548;DHT22;22551;52.206;4.856;2022-10-16T10:22:31;17.10;99.90
36548;DHT22;22551;52.206;4.856;2022-10-16T10:27:42;16.70;99.90
36548;DHT22;22551;52.206;4.856;2022-10-16T10:33:08;16.60;99.90
36548;DHT22;22551;52.206;4.856;2022-10-16T10:38:25;16.90;99.90
36548;DHT22;22551;52.206;4.856;2022-10-16T10:43:44;16.90;99.90
36548;DHT22;22551;52.206;4.856;2022-10-16T10:49:07;16.80;99.90
36548;DHT22;22551;52.206;4.856;2022-10-16T10:54:20;16.80;99.90
36548;DHT22;22551;52.206;4.856;2022-10-16T10:59:52;16.80;99.90
36548;DHT22;22551;52.206;4.856;2022-10-16T11:05:23;16.80;99.90
36548;DHT22;22551;52.206;4.856;2022-10-16T11:10:37;17.30;99.90
36548;DHT22;22551;52.206;4.856;2022-10-16T11:15:47;17.60;99.90
36548;DHT22;22551;52.206;4.856;2022-10-16T11:20:54;17.70;99.90
36548;DHT22;22551;52.206;4.856;2022-10-16T11:26:02;17.80;99.90
36548;DHT22;22551;52.206;4.856;2022-10-16T11:31:13;17.70;99.90
36548;DHT22;22551;52.206;4.856;2022-10-16T11:36:22;17.60;99.90
36548;DHT22;22551;52.206;4.856;2022-10-16T11:41:29;17.70;99.90
36548;DHT22;22551;52.206;4.856;2022-10-16T11:46:40;17.80;99.90
36548;DHT22;22551;52.206;4.856;2022-10-16T11:51:51;18.10;99.90
36548;DHT22;22551;52.206;4.856;2022-10-16T11:57:01;18.00;99.90
36548;DHT22;22551;52.206;4.856;2022-10-16T12:07:56;18.50;99.90
36548;DHT22;22551;52.206;4.856;2022-10-16T12:13:28;18.60;99.90
36548;DHT22;22551;52.206;4.856;2022-10-16T12:18:33;18.70;99.90
36548;DHT22;22551;52.206;4.856;2022-10-16T12:23:37;18.50;99.90
36548;DHT22;22551;52.206;4.856;2022-10-16T12:28:40;18.50;99.90
36548;DHT22;22551;52.206;4.856;2022-10-16T12:33:55;18.70;99.90
36548;DHT22;22551;52.206;4.856;2022-10-16T12:39:00;18.60;99.90
36548;DHT22;22551;52.206;4.856;2022-10-16T12:44:03;18.70;99.90
36548;DHT22;22551;52.206;4.856;2022-10-16T12:49:22;18.50;99.90
36548;DHT22;22551;52.206;4.856;2022-10-16T12:54:35;18.30;99.90
36548;DHT22;22551;52.206;4.856;2022-10-16T12:59:43;18.00;99.90
36548;DHT22;22551;52.206;4.856;2022-10-16T13:05:11;17.90;99.90
36548;DHT22;22551;52.206;4.856;2022-10-16T13:10:25;17.70;99.90
36548;DHT22;22551;52.206;4.856;2022-10-16T13:15:44;17.50;99.90
36548;DHT22;22551;52.206;4.856;2022-10-16T13:21:06;17.50;99.90
36548;DHT22;22551;52.206;4.856;2022-10-16T13:26:23;17.50;99.90
36548;DHT22;22551;52.206;4.856;2022-10-16T13:31:32;17.40;99.90
36548;DHT22;22551;52.206;4.856;2022-10-16T13:36:43;17.30;99.90
36548;DHT22;22551;52.206;4.856;2022-10-16T13:41:47;17.30;99.90
36548;DHT22;22551;52.206;4.856;2022-10-16T13:47:00;17.30;99.90
36548;DHT22;22551;52.206;4.856;2022-10-16T13:52:05;17.40;99.90
36548;DHT22;22551;52.206;4.856;2022-10-16T13:57:07;17.40;99.90
36548;DHT22;22551;52.206;4.856;2022-10-16T14:02:20;17.30;99.90
36548;DHT22;22551;52.206;4.856;2022-10-16T14:07:28;17.40;99.90
36548;DHT22;22551;52.206;4.856;2022-10-16T14:12:31;17.30;99.90
36548;DHT22;22551;52.206;4.856;2022-10-16T14:17:35;17.30;99.90
36548;DHT22;22551;52.206;4.856;2022-10-16T14:22:41;17.40;99.90
36548;DHT22;22551;52.206;4.856;2022-10-16T14:27:57;17.40;99.90
36548;DHT22;22551;52.206;4.856;2022-10-16T14:33:01;17.20;99.90
36548;DHT22;22551;52.206;4.856;2022-10-16T14:38:06;17.20;99.90
36548;DHT22;22551;52.206;4.856;2022-10-16T14:43:22;17.20;99.90
36548;DHT22;22551;52.206;4.856;2022-10-16T14:48:25;17.10;99.90
36548;DHT22;22551;52.206;4.856;2022-10-16T14:53:29;16.90;99.90
36548;DHT22;22551;52.206;4.856;2022-10-16T14:58:31;17.00;99.90
36548;DHT22;22551;52.206;4.856;2022-10-16T15:03:33;17.00;99.90
36548;DHT22;22551;52.206;4.856;2022-10-16T15:08:37;16.90;99.90
36548;DHT22;22551;52.206;4.856;2022-10-16T15:13:39;16.90;99.90
36548;DHT22;22551;52.206;4.856;2022-10-16T15:18:42;16.80;99.90
36548;DHT22;22551;52.206;4.856;2022-10-16T15:23:45;16.60;99.90
36548;DHT22;22551;52.206;4.856;2022-10-16T15:28:47;16.60;99.90
36548;DHT22;22551;52.206;4.856;2022-10-16T15:33:50;16.50;99.90
36548;DHT22;22551;52.206;4.856;2022-10-16T15:38:56;16.50;99.90
36548;DHT22;22551;52.206;4.856;2022-10-16T15:43:58;16.50;99.90
36548;DHT22;22551;52.206;4.856;2022-10-16T15:49:01;16.30;99.90
36548;DHT22;22551;52.206;4.856;2022-10-16T15:54:05;16.30;99.90
36548;DHT22;22551;52.206;4.856;2022-10-16T15:59:07;16.20;99.90
36548;DHT22;22551;52.206;4.856;2022-10-16T16:04:09;16.10;99.90
36548;DHT22;22551;52.206;4.856;2022-10-16T16:09:14;16.00;99.90
36548;DHT22;22551;52.206;4.856;2022-10-16T16:14:16;15.80;99.90
36548;DHT22;22551;52.206;4.856;2022-10-16T16:19:18;15.70;99.90
36548;DHT22;22551;52.206;4.856;2022-10-16T16:24:23;15.60;99.90
36548;DHT22;22551;52.206;4.856;2022-10-16T16:29:26;15.40;99.90
36548;DHT22;22551;52.206;4.856;2022-10-16T16:34:28;15.30;99.90
36548;DHT22;22551;52.206;4.856;2022-10-16T16:39:32;15.20;99.90
36548;DHT22;22551;52.206;4.856;2022-10-16T16:44:35;15.10;99.90
36548;DHT22;22551;52.206;4.856;2022-10-16T16:49:37;15.00;99.90
36548;DHT22;22551;52.206;4.856;2022-10-16T16:54:43;14.90;99.90
36548;DHT22;22551;52.206;4.856;2022-10-16T16:59:51;14.70;99.90
36548;DHT22;22551;52.206;4.856;2022-10-16T17:04:53;14.70;99.90
36548;DHT22;22551;52.206;4.856;2022-10-16T17:09:58;14.60;99.90
36548;DHT22;22551;52.206;4.856;2022-10-16T17:15:01;14.60;99.90
36548;DHT22;22551;52.206;4.856;2022-10-16T17:20:03;14.50;99.90
36548;DHT22;22551;52.206;4.856;2022-10-16T17:25:08;14.50;99.90
36548;DHT22;22551;52.206;4.856;2022-10-16T17:30:10;14.40;99.90
36548;DHT22;22551;52.206;4.856;2022-10-16T17:35:12;14.40;99.90
36548;DHT22;22551;52.206;4.856;2022-10-16T17:40:18;14.30;99.90
36548;DHT22;22551;52.206;4.856;2022-10-16T17:45:20;14.30;99.90
36548;DHT22;22551;52.206;4.856;2022-10-16T17:50:22;14.30;99.90
36548;DHT22;22551;52.206;4.856;2022-10-16T17:55:27;14.20;99.90
36548;DHT22;22551;52.206;4.856;2022-10-16T18:00:29;14.20;99.90
36548;DHT22;22551;52.206;4.856;2022-10-16T18:05:31;14.20;99.90
36548;DHT22;22551;52.206;4.856;2022-10-16T18:10:35;14.20;99.90
36548;DHT22;22551;52.206;4.856;2022-10-16T18:15:37;14.20;99.90
36548;DHT22;22551;52.206;4.856;2022-10-16T18:20:39;14.20;99.90
36548;DHT22;22551;52.206;4.856;2022-10-16T18:25:49;14.10;99.90
36548;DHT22;22551;52.206;4.856;2022-10-16T18:30:55;14.10;99.90
36548;DHT22;22551;52.206;4.856;2022-10-16T18:36:00;14.10;99.90
36548;DHT22;22551;52.206;4.856;2022-10-16T18:41:04;14.10;99.90
36548;DHT22;22551;52.206;4.856;2022-10-16T18:46:09;14.10;99.90
36548;DHT22;22551;52.206;4.856;2022-10-16T18:51:14;14.10;99.90
36548;DHT22;22551;52.206;4.856;2022-10-16T18:56:20;14.00;99.90
36548;DHT22;22551;52.206;4.856;2022-10-16T19:01:25;14.10;99.90
36548;DHT22;22551;52.206;4.856;2022-10-16T19:06:29;14.10;99.90
36548;DHT22;22551;52.206;4.856;2022-10-16T19:11:35;14.00;99.90
36548;DHT22;22551;52.206;4.856;2022-10-16T19:16:38;13.90;99.90
36548;DHT22;22551;52.206;4.856;2022-10-16T19:21:43;13.90;99.90
36548;DHT22;22551;52.206;4.856;2022-10-16T19:26:49;13.90;99.90
36548;DHT22;22551;52.206;4.856;2022-10-16T19:31:51;13.90;99.90
36548;DHT22;22551;52.206;4.856;2022-10-16T19:36:54;13.90;99.90
36548;DHT22;22551;52.206;4.856;2022-10-16T19:41:58;13.90;99.90
36548;DHT22;22551;52.206;4.856;2022-10-16T19:47:00;13.90;99.90
36548;DHT22;22551;52.206;4.856;2022-10-16T19:52:02;13.80;99.90
36548;DHT22;22551;52.206;4.856;2022-10-16T19:57:07;13.80;99.90
36548;DHT22;22551;52.206;4.856;2022-10-16T20:02:10;13.80;99.90
36548;DHT22;22551;52.206;4.856;2022-10-16T20:07:12;13.70;99.90
36548;DHT22;22551;52.206;4.856;2022-10-16T20:12:18;13.70;99.90
36548;DHT22;22551;52.206;4.856;2022-10-16T20:17:20;13.70;99.90
36548;DHT22;22551;52.206;4.856;2022-10-16T20:22:22;13.70;99.90
36548;DHT22;22551;52.206;4.856;2022-10-16T20:27:26;13.70;99.90
36548;DHT22;22551;52.206;4.856;2022-10-16T20:32:29;13.70;99.90
36548;DHT22;22551;52.206;4.856;2022-10-16T20:37:31;13.70;99.90
36548;DHT22;22551;52.206;4.856;2022-10-16T20:42:35;13.70;99.90
36548;DHT22;22551;52.206;4.856;2022-10-16T20:47:37;13.70;99.90
36548;DHT22;22551;52.206;4.856;2022-10-16T20:52:39;13.70;99.90
36548;DHT22;22551;52.206;4.856;2022-10-16T20:57:42;13.70;99.90
36548;DHT22;22551;52.206;4.856;2022-10-16T21:02:45;13.70;99.90
36548;DHT22;22551;52.206;4.856;2022-10-16T21:07:50;13.70;99.90
36548;DHT22;22551;52.206;4.856;2022-10-16T21:12:54;13.70;99.90
36548;DHT22;22551;52.206;4.856;2022-10-16T21:17:57;13.70;99.90
36548;DHT22;22551;52.206;4.856;2022-10-16T21:23:01;13.70;99.90
36548;DHT22;22551;52.206;4.856;2022-10-16T21:28:06;13.70;99.90
36548;DHT22;22551;52.206;4.856;2022-10-16T21:33:09;13.80;99.90
36548;DHT22;22551;52.206;4.856;2022-10-16T21:38:11;13.80;99.90
36548;DHT22;22551;52.206;4.856;2022-10-16T21:43:15;13.80;99.90
36548;DHT22;22551;52.206;4.856;2022-10-16T21:48:21;13.80;99.90
36548;DHT22;22551;52.206;4.856;2022-10-16T21:53:23;13.70;99.90
36548;DHT22;22551;52.206;4.856;2022-10-16T21:58:29;13.70;99.90
36548;DHT22;22551;52.206;4.856;2022-10-16T22:03:33;13.60;99.90
36548;DHT22;22551;52.206;4.856;2022-10-16T22:08:36;13.60;99.90
36548;DHT22;22551;52.206;4.856;2022-10-16T22:13:41;13.60;99.90
36548;DHT22;22551;52.206;4.856;2022-10-16T22:18:43;13.50;99.90
36548;DHT22;22551;52.206;4.856;2022-10-16T22:23:45;13.50;99.90
36548;DHT22;22551;52.206;4.856;2022-10-16T22:28:49;13.40;99.90
36548;DHT22;22551;52.206;4.856;2022-10-16T22:33:56;13.40;99.90
36548;DHT22;22551;52.206;4.856;2022-10-16T22:39:00;13.50;99.90
36548;DHT22;22551;52.206;4.856;2022-10-16T22:44:04;13.50;99.90
36548;DHT22;22551;52.206;4.856;2022-10-16T22:49:11;13.50;99.90
36548;DHT22;22551;52.206;4.856;2022-10-16T22:54:15;13.50;99.90
36548;DHT22;22551;52.206;4.856;2022-10-16T22:59:21;13.60;99.90
36548;DHT22;22551;52.206;4.856;2022-10-16T23:04:23;13.70;99.90
36548;DHT22;22551;52.206;4.856;2022-10-16T23:09:26;13.80;99.90
36548;DHT22;22551;52.206;4.856;2022-10-16T23:14:30;13.80;99.90
36548;DHT22;22551;52.206;4.856;2022-10-16T23:19:32;13.80;99.90
36548;DHT22;22551;52.206;4.856;2022-10-16T23:24:34;13.80;99.90
36548;DHT22;22551;52.206;4.856;2022-10-16T23:29:37;13.80;99.90
36548;DHT22;22551;52.206;4.856;2022-10-16T23:34:40;13.80;99.90
36548;DHT22;22551;52.206;4.856;2022-10-16T23:39:42;13.70;99.90
36548;DHT22;22551;52.206;4.856;2022-10-16T23:44:46;13.70;99.90
36548;DHT22;22551;52.206;4.856;2022-10-16T23:49:48;13.70;99.90
36548;DHT22;22551;52.206;4.856;2022-10-16T23:54:50;13.60;99.90
36548;DHT22;22551;52.206;4.856;2022-10-16T23:59:53;13.50;99.90
